Terminal Aerodrome Forecast
Issued by NWS Green Bay, WI

Home | Current Version | Previous Version | Graphics & Text | Print | Product List | Glossary On
Versions: 1 2 3 4 5 6 7 8 9 10 11 12 13 14 15
000
FTUS43 KGRB 151140
TAFGRB
TAF
KGRB 151140Z 1512/1612 26008KT P6SM BKN150
     FM152100 32009G16KT P6SM SCT035
     FM152300 35007KT P6SM BKN035
     FM160200 34011G17KT P6SM -SHSN OVC035 PROB30 1603/1607 4SM
      -SHSN
     FM160800 32010G17KT P6SM BKN035=

USA.gov is the U.S. government's official web portal to all federal, state and local government web resources and services.